Time;durP1;ratioP1;P1;durP2;ratioP2;P2;SDS_P1;SDS_P2;PMS_P1;PMS_P2;Temp;Humidity;BMP_temperature;BMP_pressure;BME280_temperature;BME280_humidity;BME280_pressure;Samples;Min_cycle;Max_cycle;Signal;HPM_P1;HPM_P2
2023/10/09 00:02:11;;;;;;;8.70;3.70;;;;;;;;;;5090348;28;20382;-74
2023/10/09 00:04:42;;;;;;;8.65;3.33;;;;;;;;;;5100061;28;20513;-74
2023/10/09 00:07:08;;;;;;;8.57;3.40;;;;;;;;;;5096904;28;20021;-74
2023/10/09 00:09:46;;;;;;;8.43;3.15;;;;;;;;;;5092460;28;20013;-74
2023/10/09 00:12:15;;;;;;;10.27;3.40;;;;;;;;;;5093139;28;20028;-74
2023/10/09 00:14:47;;;;;;;8.00;3.10;;;;;;;;;;5092521;28;20020;-75
2023/10/09 00:19:42;;;;;;;9.25;2.95;;;;;;;;;;5095413;28;20077;-74
2023/10/09 00:22:18;;;;;;;10.93;3.28;;;;;;;;;;5090052;28;20080;-73
2023/10/09 00:24:46;;;;;;;9.90;3.10;;;;;;;;;;5091518;28;20032;-74
2023/10/09 00:27:12;;;;;;;6.50;3.03;;;;;;;;;;5091007;28;20474;-74
2023/10/09 00:29:44;;;;;;;10.07;2.90;;;;;;;;;;5091160;28;20422;-74
2023/10/09 00:32:13;;;;;;;9.70;2.90;;;;;;;;;;5091091;28;20415;-74
2023/10/09 00:34:39;;;;;;;10.60;3.38;;;;;;;;;;5092015;28;20031;-74
2023/10/09 00:37:10;;;;;;;10.18;2.88;;;;;;;;;;5094341;28;20399;-73
2023/10/09 00:42:12;;;;;;;13.38;3.50;;;;;;;;;;5102529;28;20036;-74
2023/10/09 00:44:48;;;;;;;11.10;3.28;;;;;;;;;;5075519;28;20033;-74
2023/10/09 00:47:21;;;;;;;7.53;3.10;;;;;;;;;;5075193;28;20530;-74
2023/10/09 00:50:00;;;;;;;8.60;3.25;;;;;;;;;;5094847;28;20039;-74
2023/10/09 00:52:39;;;;;;;8.02;2.78;;;;;;;;;;5094522;28;20012;-74
2023/10/09 00:55:13;;;;;;;15.38;2.95;;;;;;;;;;5094181;28;20028;-74
2023/10/09 00:57:40;;;;;;;11.75;3.58;;;;;;;;;;5094379;28;20245;-73
2023/10/09 01:00:23;;;;;;;13.07;3.15;;;;;;;;;;5094389;28;20372;-77
2023/10/09 01:03:09;;;;;;;10.75;2.95;;;;;;;;;;5094496;28;20028;-76
2023/10/09 01:05:36;;;;;;;14.02;2.90;;;;;;;;;;5094918;28;20474;-75
2023/10/09 01:08:15;;;;;;;7.03;2.75;;;;;;;;;;5092596;28;20441;-74
2023/10/09 01:10:50;;;;;;;9.98;3.22;;;;;;;;;;5093309;28;20055;-74
2023/10/09 01:13:18;;;;;;;14.43;3.92;;;;;;;;;;5094272;28;20482;-76
2023/10/09 01:15:44;;;;;;;8.30;2.90;;;;;;;;;;5094670;28;20110;-76
2023/10/09 01:18:11;;;;;;;11.02;2.97;;;;;;;;;;5094354;28;20020;-76
2023/10/09 01:20:45;;;;;;;8.98;3.00;;;;;;;;;;5095007;28;20127;-74
2023/10/09 01:23:11;;;;;;;10.13;3.33;;;;;;;;;;5095073;28;20059;-74
2023/10/09 01:25:45;;;;;;;10.02;3.22;;;;;;;;;;5094779;28;20062;-74
2023/10/09 01:28:15;;;;;;;10.23;3.45;;;;;;;;;;5076230;28;20024;-74
2023/10/09 01:30:41;;;;;;;9.02;2.95;;;;;;;;;;5094173;28;20024;-73
2023/10/09 01:33:30;;;;;;;7.70;3.10;;;;;;;;;;5092361;28;20031;-73
2023/10/09 01:35:58;;;;;;;12.38;3.65;;;;;;;;;;5073228;28;20029;-74
2023/10/09 01:38:40;;;;;;;9.32;3.30;;;;;;;;;;5081201;28;20483;-74
2023/10/09 01:41:19;;;;;;;11.48;3.88;;;;;;;;;;5094092;28;20051;-76
2023/10/09 01:43:45;;;;;;;17.45;3.60;;;;;;;;;;5094091;28;20028;-75
2023/10/09 01:46:19;;;;;;;8.60;2.92;;;;;;;;;;5094453;28;20032;-75
2023/10/09 01:48:46;;;;;;;13.18;4.13;;;;;;;;;;5093970;28;20513;-75
2023/10/09 01:51:20;;;;;;;8.82;3.50;;;;;;;;;;5075479;28;20028;-75
2023/10/09 01:53:55;;;;;;;15.30;3.88;;;;;;;;;;5094220;28;20062;-74
2023/10/09 01:56:21;;;;;;;8.57;3.70;;;;;;;;;;5094201;28;20012;-76
2023/10/09 01:58:49;;;;;;;10.65;2.83;;;;;;;;;;5094380;28;20184;-74
2023/10/09 02:01:15;;;;;;;8.57;3.45;;;;;;;;;;5076519;28;20024;-75
2023/10/09 02:03:43;;;;;;;9.00;2.53;;;;;;;;;;5093307;28;20024;-74
2023/10/09 02:06:27;;;;;;;10.18;2.80;;;;;;;;;;5093927;28;20062;-76
2023/10/09 02:08:53;;;;;;;12.07;3.13;;;;;;;;;;5093670;28;20016;-75
2023/10/09 02:14:18;;;;;;;10.73;2.90;;;;;;;;;;5094043;28;20116;-77
2023/10/09 02:16:44;;;;;;;10.25;2.60;;;;;;;;;;5093780;28;20016;-75
2023/10/09 02:19:31;;;;;;;9.20;2.95;;;;;;;;;;5093105;28;20138;-76
2023/10/09 02:21:57;;;;;;;9.25;2.40;;;;;;;;;;5093252;28;20115;-74
2023/10/09 02:24:28;;;;;;;12.57;2.80;;;;;;;;;;5093276;28;20472;-75
2023/10/09 02:29:23;;;;;;;9.80;2.63;;;;;;;;;;5092795;28;20030;-77
2023/10/09 02:31:55;;;;;;;7.53;2.17;;;;;;;;;;5092726;28;20034;-75
2023/10/09 02:34:26;;;;;;;10.52;3.08;;;;;;;;;;5092576;28;20081;-75
2023/10/09 02:37:04;;;;;;;11.23;2.83;;;;;;;;;;5092541;28;20138;-74
2023/10/09 02:39:36;;;;;;;7.07;2.60;;;;;;;;;;5093014;28;20101;-75
2023/10/09 02:42:19;;;;;;;8.45;2.70;;;;;;;;;;5093651;28;20035;-74
2023/10/09 02:44:51;;;;;;;5.55;2.30;;;;;;;;;;5093355;28;20040;-76
2023/10/09 02:47:24;;;;;;;8.73;2.45;;;;;;;;;;5092902;28;20028;-74
2023/10/09 02:49:50;;;;;;;7.60;2.50;;;;;;;;;;5093386;28;20219;-74
2023/10/09 02:52:19;;;;;;;7.80;2.47;;;;;;;;;;5093905;28;20057;-74
2023/10/09 02:54:48;;;;;;;7.45;2.33;;;;;;;;;;5056254;28;20021;-74
2023/10/09 02:57:23;;;;;;;7.78;2.50;;;;;;;;;;5055691;28;20035;-74
2023/10/09 02:59:51;;;;;;;8.52;2.42;;;;;;;;;;5074704;28;20055;-74
2023/10/09 03:02:18;;;;;;;8.05;2.50;;;;;;;;;;5073624;28;20024;-75
2023/10/09 03:04:44;;;;;;;14.40;2.90;;;;;;;;;;5093355;28;20051;-75
2023/10/09 03:07:13;;;;;;;7.20;2.42;;;;;;;;;;5093510;28;20674;-75
2023/10/09 03:09:40;;;;;;;11.02;3.13;;;;;;;;;;5095855;28;20080;-74
2023/10/09 03:12:09;;;;;;;9.23;2.88;;;;;;;;;;5097815;28;20016;-74
2023/10/09 03:14:38;;;;;;;12.80;2.53;;;;;;;;;;5091041;28;20023;-74
2023/10/09 03:17:04;;;;;;;7.97;2.60;;;;;;;;;;5091889;28;20016;-74
2023/10/09 03:19:33;;;;;;;10.60;2.92;;;;;;;;;;5091480;28;20055;-74
2023/10/09 03:22:00;;;;;;;12.40;3.15;;;;;;;;;;5091801;28;20020;-73
2023/10/09 03:24:27;;;;;;;8.75;2.85;;;;;;;;;;5092145;28;20421;-79
2023/10/09 03:26:55;;;;;;;10.30;2.70;;;;;;;;;;5087700;28;20093;-77
2023/10/09 03:29:22;;;;;;;7.03;3.05;;;;;;;;;;5092366;28;20090;-76
2023/10/09 03:31:50;;;;;;;11.95;2.72;;;;;;;;;;5100103;28;20035;-76
2023/10/09 03:34:16;;;;;;;8.98;2.83;;;;;;;;;;5087849;28;20465;-76
2023/10/09 03:36:43;;;;;;;8.18;3.03;;;;;;;;;;5089454;28;20054;-77
2023/10/09 03:41:54;;;;;;;9.52;2.58;;;;;;;;;;5097073;28;20513;-79
2023/10/09 03:44:20;;;;;;;6.88;2.70;;;;;;;;;;5087890;28;20021;-76
2023/10/09 03:46:46;;;;;;;10.73;2.85;;;;;;;;;;5090829;28;20506;-76
2023/10/09 03:49:15;;;;;;;9.15;2.75;;;;;;;;;;5098680;28;20475;-75
2023/10/09 03:51:42;;;;;;;10.50;3.05;;;;;;;;;;5099020;28;20023;-78
2023/10/09 03:54:09;;;;;;;7.90;2.80;;;;;;;;;;5097385;28;20052;-75
2023/10/09 03:56:35;;;;;;;9.88;2.58;;;;;;;;;;5099810;28;20020;-74
2023/10/09 03:59:03;;;;;;;7.95;3.03;;;;;;;;;;5093806;28;20455;-75
2023/10/09 04:01:31;;;;;;;15.25;3.95;;;;;;;;;;5091411;28;20023;-74
2023/10/09 04:03:59;;;;;;;9.10;3.08;;;;;;;;;;5093877;28;20383;-76
2023/10/09 04:06:32;;;;;;;10.15;2.50;;;;;;;;;;5093264;28;20020;-74
2023/10/09 04:08:58;;;;;;;9.13;3.03;;;;;;;;;;5093530;28;20052;-74
2023/10/09 04:11:27;;;;;;;9.32;3.40;;;;;;;;;;5092567;28;20027;-75
2023/10/09 04:13:55;;;;;;;11.13;3.72;;;;;;;;;;5095466;28;20028;-75
2023/10/09 04:18:56;;;;;;;8.80;2.75;;;;;;;;;;5096390;28;20063;-74
2023/10/09 04:21:34;;;;;;;9.50;2.80;;;;;;;;;;5096427;28;20032;-74
2023/10/09 04:26:44;;;;;;;10.13;3.17;;;;;;;;;;5099753;28;20032;-75
2023/10/09 04:29:38;;;;;;;10.10;2.50;;;;;;;;;;5095006;28;20012;-75
2023/10/09 04:32:07;;;;;;;9.48;3.53;;;;;;;;;;5099121;28;20026;-77
2023/10/09 04:34:37;;;;;;;8.45;3.33;;;;;;;;;;5077331;28;20112;-77
2023/10/09 04:39:46;;;;;;;8.18;2.80;;;;;;;;;;5103366;28;20036;-77
2023/10/09 04:47:36;;;;;;;10.70;3.05;;;;;;;;;;5103323;28;20036;-78
2023/10/09 04:57:45;;;;;;;10.15;3.17;;;;;;;;;;5103103;28;20032;-76
2023/10/09 05:03:07;;;;;;;9.27;2.88;;;;;;;;;;5109292;28;20024;-76
2023/10/09 05:08:21;;;;;;;9.00;3.03;;;;;;;;;;5119908;28;20028;-74
2023/10/09 05:16:18;;;;;;;10.57;2.95;;;;;;;;;;5120575;28;20027;-75
2023/10/09 05:18:45;;;;;;;9.38;2.90;;;;;;;;;;5099103;28;20042;-74
2023/10/09 05:31:57;;;;;;;10.20;3.03;;;;;;;;;;5114065;28;20057;-72
2023/10/09 05:34:33;;;;;;;9.27;2.95;;;;;;;;;;5114035;28;20452;-73
2023/10/09 05:37:16;;;;;;;13.88;3.22;;;;;;;;;;5114224;28;20080;-74
2023/10/09 05:39:43;;;;;;;9.60;2.85;;;;;;;;;;5113671;28;20106;-74
2023/10/09 05:42:12;;;;;;;16.83;3.08;;;;;;;;;;5114239;28;20031;-74
2023/10/09 05:46:02;;;;;;;10.48;3.10;;;;;;;;;;5106160;28;20048;-75
2023/10/09 05:50:34;;;;;;;9.77;3.00;;;;;;;;;;5059334;28;20487;-75
2023/10/09 05:53:06;;;;;;;8.65;3.05;;;;;;;;;;5072083;28;20058;-75
2023/10/09 06:03:53;;;;;;;10.40;3.75;;;;;;;;;;5091130;28;20039;-75
2023/10/09 06:06:44;;;;;;;10.00;3.67;;;;;;;;;;5100951;28;20502;-75
2023/10/09 06:11:39;;;;;;;9.80;3.70;;;;;;;;;;5093501;28;20028;-74
2023/10/09 06:16:41;;;;;;;11.55;3.90;;;;;;;;;;5093073;28;20487;-75
2023/10/09 06:29:38;;;;;;;8.93;3.28;;;;;;;;;;5097852;28;20021;-75
2023/10/09 06:34:56;;;;;;;9.55;3.60;;;;;;;;;;5096405;28;20066;-76
2023/10/09 06:42:31;;;;;;;16.02;5.80;;;;;;;;;;5098960;28;20024;-76
2023/10/09 06:44:59;;;;;;;17.88;7.60;;;;;;;;;;5101802;28;20024;-76
2023/10/09 06:47:25;;;;;;;18.00;7.00;;;;;;;;;;5098312;28;20024;-78
2023/10/09 06:50:24;;;;;;;45.10;17.40;;;;;;;;;;5093391;28;20024;-77
2023/10/09 06:55:37;;;;;;;;;;;;;;;;;;5094035;28;20340;-77
2023/10/09 06:58:09;;;;;;;20.10;5.72;;;;;;;;;;5093054;28;19904;-76
2023/10/09 07:03:32;;;;;;;15.80;6.45;;;;;;;;;;5092167;28;20039;-73
2023/10/09 07:06:51;;;;;;;15.95;6.72;;;;;;;;;;5097052;28;20273;-75
2023/10/09 07:17:00;;;;;;;11.80;5.40;;;;;;;;;;5091810;28;20036;-74
2023/10/09 07:24:56;;;;;;;17.60;6.57;;;;;;;;;;5092298;28;20024;-75
2023/10/09 07:27:45;;;;;;;19.05;6.25;;;;;;;;;;5091316;28;20032;-73
2023/10/09 07:38:09;;;;;;;15.65;5.47;;;;;;;;;;5091580;28;20396;-75
2023/10/09 07:40:55;;;;;;;10.35;4.82;;;;;;;;;;5073696;28;20161;-75
2023/10/09 07:46:51;;;;;;;11.52;4.60;;;;;;;;;;5091621;28;20040;-75
2023/10/09 07:49:24;;;;;;;7.63;4.10;;;;;;;;;;5094204;28;20103;-75
2023/10/09 07:51:52;;;;;;;10.32;4.05;;;;;;;;;;5095581;28;20055;-73
2023/10/09 07:54:31;;;;;;;13.80;7.07;;;;;;;;;;5096712;28;20045;-73
2023/10/09 07:57:08;;;;;;;10.15;3.83;;;;;;;;;;5077552;28;20032;-74
2023/10/09 07:59:41;;;;;;;9.00;3.85;;;;;;;;;;5095641;28;20103;-75
2023/10/09 08:02:13;;;;;;;12.15;4.00;;;;;;;;;;5096011;28;20023;-75
2023/10/09 08:04:47;;;;;;;6.10;3.40;;;;;;;;;;5097276;28;20046;-74
2023/10/09 08:07:19;;;;;;;;;;;;;;;;;;5097191;28;20020;-74
2023/10/09 08:09:46;;;;;;;9.57;3.65;;;;;;;;;;5095326;28;19904;-75
2023/10/09 08:17:48;;;;;;;6.80;3.38;;;;;;;;;;5095977;28;20036;-76
2023/10/09 08:20:17;;;;;;;7.03;3.00;;;;;;;;;;5095958;28;20031;-77
2023/10/09 08:22:43;;;;;;;7.03;3.30;;;;;;;;;;5095120;28;20028;-77
2023/10/09 08:25:26;;;;;;;7.63;3.17;;;;;;;;;;5095373;28;20102;-75
2023/10/09 08:27:56;;;;;;;7.72;3.58;;;;;;;;;;5095051;28;20032;-74
2023/10/09 08:33:02;;;;;;;8.25;3.72;;;;;;;;;;5095070;28;20111;-76
2023/10/09 08:35:32;;;;;;;6.93;3.35;;;;;;;;;;5095847;28;20020;-76
2023/10/09 08:38:07;;;;;;;8.88;3.22;;;;;;;;;;5100657;28;20020;-78
2023/10/09 08:40:39;;;;;;;9.30;4.18;;;;;;;;;;5099572;28;20416;-81
2023/10/09 08:43:16;;;;;;;12.27;3.60;;;;;;;;;;5079965;28;20096;-78
2023/10/09 08:45:46;;;;;;;5.47;3.33;;;;;;;;;;5105513;28;20028;-76
2023/10/09 08:48:15;;;;;;;6.13;3.65;;;;;;;;;;5106255;28;20077;-78
2023/10/09 08:50:43;;;;;;;7.03;3.22;;;;;;;;;;5099739;28;20077;-80
2023/10/09 08:53:10;;;;;;;7.47;3.33;;;;;;;;;;5098799;28;20012;-79
2023/10/09 08:55:38;;;;;;;5.22;3.28;;;;;;;;;;5097022;28;20028;-75
2023/10/09 08:58:15;;;;;;;6.63;3.20;;;;;;;;;;5095631;28;20031;-75
2023/10/09 09:00:45;;;;;;;4.05;2.85;;;;;;;;;;5077323;28;20555;-77
2023/10/09 09:03:16;;;;;;;7.03;3.28;;;;;;;;;;5096752;28;20020;-74
2023/10/09 09:05:46;;;;;;;4.72;3.00;;;;;;;;;;5095364;28;20024;-75
2023/10/09 09:08:28;;;;;;;8.40;3.33;;;;;;;;;;5094514;28;20368;-74
2023/10/09 09:11:18;;;;;;;7.32;3.28;;;;;;;;;;5094304;28;20080;-74
2023/10/09 09:14:04;;;;;;;7.13;3.80;;;;;;;;;;5094953;28;20080;-74
2023/10/09 09:16:31;;;;;;;7.88;4.90;;;;;;;;;;5095075;28;20445;-74
2023/10/09 09:19:39;;;;;;;6.93;3.78;;;;;;;;;;5095523;28;20027;-76
2023/10/09 09:21:54;;;;;;;9.05;3.25;;;;;;;;;;5083675;28;20036;-74
2023/10/09 09:27:12;;;;;;;5.70;3.35;;;;;;;;;;5095650;28;20024;-76
2023/10/09 09:29:39;;;;;;;5.05;3.25;;;;;;;;;;5094382;28;20448;-77
2023/10/09 09:32:29;;;;;;;6.07;3.45;;;;;;;;;;5094344;28;20635;-78
2023/10/09 09:35:01;;;;;;;5.88;4.15;;;;;;;;;;5095461;28;20032;-76
2023/10/09 09:42:56;;;;;;;;;;;;;;;;;;5096344;28;20141;-74
2023/10/09 09:45:24;;;;;;;8.45;5.10;;;;;;;;;;5093741;28;19904;-74
2023/10/09 09:47:53;;;;;;;8.70;4.63;;;;;;;;;;5095760;28;20070;-74
2023/10/09 09:50:26;;;;;;;12.18;7.68;;;;;;;;;;5098878;28;20028;-74
2023/10/09 09:52:53;;;;;;;9.38;5.78;;;;;;;;;;5101604;28;20034;-73
2023/10/09 09:55:22;;;;;;;9.90;6.20;;;;;;;;;;5097426;28;20030;-74
2023/10/09 09:57:52;;;;;;;8.63;4.80;;;;;;;;;;5094364;28;20020;-72
2023/10/09 10:00:42;;;;;;;8.55;4.55;;;;;;;;;;5081335;28;20106;-74
2023/10/09 10:03:11;;;;;;;7.50;4.55;;;;;;;;;;5094482;28;20359;-73
2023/10/09 10:05:38;;;;;;;9.82;5.80;;;;;;;;;;5080924;28;20031;-73
2023/10/09 10:08:05;;;;;;;6.43;4.10;;;;;;;;;;5099612;28;20032;-74
2023/10/09 10:11:04;;;;;;;6.72;3.75;;;;;;;;;;5084979;28;20052;-74
2023/10/09 10:13:43;;;;;;;7.28;3.70;;;;;;;;;;5095617;28;20078;-79
2023/10/09 10:19:06;;;;;;;5.53;3.58;;;;;;;;;;5093240;28;20044;-75
2023/10/09 10:21:37;;;;;;;5.07;3.58;;;;;;;;;;5092907;28;20360;-75
2023/10/09 10:24:06;;;;;;;5.72;3.25;;;;;;;;;;5093200;28;20111;-77
2023/10/09 10:26:36;;;;;;;8.38;4.20;;;;;;;;;;5075470;28;20430;-75
2023/10/09 10:29:33;;;;;;;11.45;7.15;;;;;;;;;;5093624;28;20121;-74
2023/10/09 10:32:01;;;;;;;5.82;4.30;;;;;;;;;;5093232;28;20082;-75
2023/10/09 10:34:27;;;;;;;8.00;4.22;;;;;;;;;;5092521;28;20107;-74
2023/10/09 10:36:59;;;;;;;6.80;4.13;;;;;;;;;;5092045;28;20024;-75
2023/10/09 10:39:45;;;;;;;5.78;3.95;;;;;;;;;;5092551;28;20028;-75
2023/10/09 10:42:15;;;;;;;5.25;4.13;;;;;;;;;;5092355;28;20495;-74
2023/10/09 10:44:44;;;;;;;4.72;3.63;;;;;;;;;;5093258;28;20093;-74
2023/10/09 10:47:57;;;;;;;5.78;3.78;;;;;;;;;;5092327;28;20082;-74
2023/10/09 10:52:57;;;;;;;4.75;3.25;;;;;;;;;;5092426;28;20074;-74
2023/10/09 10:58:09;;;;;;;7.70;3.25;;;;;;;;;;5092940;28;20068;-75
2023/10/09 11:03:54;;;;;;;4.53;3.13;;;;;;;;;;5093026;28;20035;-76
2023/10/09 11:06:17;;;;;;;4.95;3.00;;;;;;;;;;5093502;28;20036;-78
2023/10/09 11:08:56;;;;;;;5.07;3.03;;;;;;;;;;5094344;28;20027;-77
2023/10/09 11:11:23;;;;;;;6.50;4.45;;;;;;;;;;5092295;28;20016;-74
2023/10/09 11:14:05;;;;;;;4.47;3.30;;;;;;;;;;5093835;28;20123;-75
2023/10/09 11:16:44;;;;;;;8.85;3.70;;;;;;;;;;5093309;28;20062;-74
2023/10/09 11:19:28;;;;;;;7.65;5.03;;;;;;;;;;5091480;28;20111;-75
2023/10/09 11:21:59;;;;;;;6.75;4.68;;;;;;;;;;5091464;28;20097;-77
2023/10/09 11:24:27;;;;;;;5.53;3.17;;;;;;;;;;5092145;28;20081;-77
2023/10/09 11:26:56;;;;;;;5.53;3.35;;;;;;;;;;5094137;28;20028;-76
2023/10/09 11:29:23;;;;;;;4.57;3.45;;;;;;;;;;5092781;28;20044;-74
2023/10/09 11:32:06;;;;;;;11.88;8.45;;;;;;;;;;5091792;28;20051;-74
2023/10/09 11:34:34;;;;;;;16.88;10.80;;;;;;;;;;5091743;28;20020;-74
2023/10/09 11:37:01;;;;;;;6.75;4.65;;;;;;;;;;5092170;28;20079;-74
2023/10/09 11:39:34;;;;;;;7.68;2.90;;;;;;;;;;5091445;28;20430;-72
2023/10/09 11:42:07;;;;;;;9.68;7.38;;;;;;;;;;5091734;28;20157;-72
2023/10/09 11:44:39;;;;;;;11.10;4.63;;;;;;;;;;5091516;28;20484;-72
2023/10/09 11:54:58;;;;;;;6.45;2.80;;;;;;;;;;5092580;28;20421;-76
2023/10/09 11:57:30;;;;;;;4.45;3.40;;;;;;;;;;5074005;28;20036;-74
2023/10/09 12:00:00;;;;;;;6.13;3.97;;;;;;;;;;5091747;28;20024;-75
2023/10/09 12:02:26;;;;;;;5.10;3.70;;;;;;;;;;5091238;28;20020;-73
2023/10/09 12:04:55;;;;;;;10.05;7.10;;;;;;;;;;5091360;28;20056;-73
2023/10/09 12:07:22;;;;;;;5.05;3.95;;;;;;;;;;5091202;28;20025;-74
2023/10/09 12:09:56;;;;;;;3.97;3.47;;;;;;;;;;5091756;28;20055;-74
2023/10/09 12:12:25;;;;;;;4.82;3.22;;;;;;;;;;5093545;28;20215;-73
2023/10/09 12:14:52;;;;;;;18.58;10.80;;;;;;;;;;5092446;28;20608;-76
2023/10/09 12:17:18;;;;;;;6.53;3.92;;;;;;;;;;5093023;28;20028;-74
2023/10/09 12:19:44;;;;;;;6.80;4.30;;;;;;;;;;5074540;28;20062;-73
2023/10/09 12:22:15;;;;;;;7.50;4.95;;;;;;;;;;5091672;28;20035;-75
2023/10/09 12:24:43;;;;;;;7.47;4.57;;;;;;;;;;5091927;28;20028;-74
2023/10/09 12:27:11;;;;;;;5.72;3.83;;;;;;;;;;5090579;28;20051;-75
2023/10/09 12:29:37;;;;;;;7.72;4.15;;;;;;;;;;5090947;28;20016;-74
2023/10/09 12:32:03;;;;;;;5.82;4.00;;;;;;;;;;5075216;28;20430;-74
2023/10/09 12:34:30;;;;;;;8.45;5.85;;;;;;;;;;5092245;28;20103;-75
2023/10/09 12:37:01;;;;;;;9.77;6.20;;;;;;;;;;5095346;28;20414;-77
2023/10/09 12:39:33;;;;;;;9.18;5.78;;;;;;;;;;5095092;28;20506;-74
2023/10/09 12:42:06;;;;;;;5.35;4.07;;;;;;;;;;5074909;28;20073;-76
2023/10/09 12:44:34;;;;;;;6.85;3.92;;;;;;;;;;5074726;28;20025;-76
2023/10/09 12:47:04;;;;;;;8.57;5.50;;;;;;;;;;5094729;28;20051;-75
2023/10/09 12:49:30;;;;;;;8.82;5.63;;;;;;;;;;5094627;28;20016;-75
2023/10/09 12:51:57;;;;;;;8.85;6.15;;;;;;;;;;5097389;28;20387;-75
2023/10/09 12:54:26;;;;;;;9.80;6.32;;;;;;;;;;5097749;28;20020;-75
2023/10/09 12:56:52;;;;;;;6.35;4.35;;;;;;;;;;5094726;28;20466;-75
2023/10/09 12:59:20;;;;;;;7.10;4.55;;;;;;;;;;5094283;28;20076;-76
2023/10/09 13:01:51;;;;;;;6.72;4.10;;;;;;;;;;5094278;28;20032;-75
2023/10/09 13:04:17;;;;;;;7.65;4.30;;;;;;;;;;5079454;28;20038;-75
2023/10/09 13:06:44;;;;;;;6.03;4.95;;;;;;;;;;5099475;28;20044;-74
2023/10/09 13:09:24;;;;;;;8.65;5.57;;;;;;;;;;5099095;28;20039;-75
2023/10/09 13:11:51;;;;;;;5.80;4.47;;;;;;;;;;5096954;28;20062;-74
2023/10/09 13:14:17;;;;;;;7.25;3.70;;;;;;;;;;5094349;28;20020;-74
2023/10/09 13:16:47;;;;;;;7.22;3.80;;;;;;;;;;5094074;28;20266;-74
2023/10/09 13:19:13;;;;;;;5.30;3.90;;;;;;;;;;5093896;28;20073;-76
2023/10/09 13:21:40;;;;;;;5.10;3.67;;;;;;;;;;5096681;28;20051;-75
2023/10/09 13:24:12;;;;;;;5.82;4.18;;;;;;;;;;5094641;28;20024;-75
2023/10/09 13:26:39;;;;;;;5.15;4.18;;;;;;;;;;5097238;28;20061;-74
2023/10/09 13:29:09;;;;;;;6.85;4.72;;;;;;;;;;5097163;28;20028;-75
2023/10/09 13:31:37;;;;;;;4.32;3.78;;;;;;;;;;5093517;28;20024;-73
2023/10/09 13:34:06;;;;;;;5.22;4.35;;;;;;;;;;5093973;28;20374;-74
2023/10/09 13:36:33;;;;;;;6.68;4.47;;;;;;;;;;5097223;28;20032;-77
2023/10/09 13:42:01;;;;;;;13.18;8.35;;;;;;;;;;5095499;28;20046;-76
2023/10/09 13:44:27;;;;;;;8.57;5.18;;;;;;;;;;5100598;28;20020;-81
2023/10/09 13:46:54;;;;;;;5.95;5.03;;;;;;;;;;5098214;28;20024;-82
2023/10/09 13:49:22;;;;;;;6.32;4.93;;;;;;;;;;5094278;28;20032;-77
2023/10/09 13:51:50;;;;;;;7.63;4.90;;;;;;;;;;5094723;28;20022;-76
2023/10/09 13:54:28;;;;;;;7.05;5.30;;;;;;;;;;5096509;28;20032;-79
2023/10/09 13:56:54;;;;;;;10.55;6.25;;;;;;;;;;5095526;28;20091;-78
2023/10/09 13:59:25;;;;;;;7.20;5.63;;;;;;;;;;5094807;28;20080;-78
2023/10/09 14:01:54;;;;;;;8.80;6.25;;;;;;;;;;5094160;28;20031;-80
2023/10/09 14:04:21;;;;;;;8.10;6.18;;;;;;;;;;5076991;28;20028;-77
2023/10/09 14:06:47;;;;;;;6.43;5.35;;;;;;;;;;5095674;28;20098;-78
2023/10/09 14:09:27;;;;;;;6.20;5.10;;;;;;;;;;5097239;28;20028;-81
2023/10/09 14:12:07;;;;;;;8.25;5.78;;;;;;;;;;5096830;28;20032;-80
2023/10/09 14:14:38;;;;;;;8.65;5.70;;;;;;;;;;5095620;28;20020;-81
2023/10/09 14:17:11;;;;;;;10.23;5.40;;;;;;;;;;5096141;28;20387;-75
2023/10/09 14:19:37;;;;;;;7.97;6.18;;;;;;;;;;5094351;28;20085;-75
2023/10/09 14:22:05;;;;;;;11.65;8.30;;;;;;;;;;5076289;28;20028;-75
2023/10/09 14:24:32;;;;;;;9.15;6.45;;;;;;;;;;5092688;28;20020;-75
2023/10/09 14:26:59;;;;;;;8.65;5.93;;;;;;;;;;5092942;28;20443;-74
2023/10/09 14:29:26;;;;;;;8.10;5.80;;;;;;;;;;5092938;28;20483;-75
2023/10/09 14:32:00;;;;;;;9.43;7.10;;;;;;;;;;5094067;28;20056;-75
2023/10/09 14:34:32;;;;;;;10.93;7.72;;;;;;;;;;5093158;28;20024;-79
2023/10/09 14:37:00;;;;;;;11.20;7.50;;;;;;;;;;5093250;28;20149;-74
2023/10/09 14:39:26;;;;;;;9.52;7.18;;;;;;;;;;5093167;28;20039;-75
2023/10/09 14:41:54;;;;;;;9.32;7.32;;;;;;;;;;5075220;28;20032;-75
2023/10/09 14:44:21;;;;;;;13.95;8.93;;;;;;;;;;5093242;28;20050;-77
2023/10/09 14:46:49;;;;;;;13.57;9.45;;;;;;;;;;5093756;28;20418;-77
2023/10/09 14:49:15;;;;;;;25.02;16.13;;;;;;;;;;5079626;28;20024;-77
2023/10/09 14:51:41;;;;;;;14.45;10.50;;;;;;;;;;5094007;28;20032;-79
2023/10/09 14:54:07;;;;;;;14.48;9.98;;;;;;;;;;5093980;28;20055;-78
2023/10/09 14:56:36;;;;;;;15.30;10.02;;;;;;;;;;5093738;28;20051;-81
2023/10/09 14:59:02;;;;;;;10.18;7.90;;;;;;;;;;5092603;28;20027;-77
2023/10/09 15:01:30;;;;;;;12.25;7.82;;;;;;;;;;5093582;28;20034;-79
2023/10/09 15:03:57;;;;;;;9.82;6.90;;;;;;;;;;5095252;28;20057;-78
2023/10/09 15:06:33;;;;;;;10.77;7.45;;;;;;;;;;5095773;28;20103;-78
2023/10/09 15:09:08;;;;;;;12.38;7.78;;;;;;;;;;5096774;28;20050;-79
2023/10/09 15:11:34;;;;;;;9.45;7.75;;;;;;;;;;5096702;28;20038;-79
2023/10/09 15:14:00;;;;;;;8.85;6.80;;;;;;;;;;5098315;28;20471;-79
2023/10/09 15:16:29;;;;;;;10.23;7.55;;;;;;;;;;5096799;28;20467;-79
2023/10/09 15:18:57;;;;;;;11.18;7.22;;;;;;;;;;5095744;28;20104;-79
2023/10/09 15:21:26;;;;;;;9.40;6.53;;;;;;;;;;5094188;28;20032;-75
2023/10/09 15:23:54;;;;;;;8.73;6.28;;;;;;;;;;5092771;28;20020;-77
2023/10/09 15:26:20;;;;;;;9.00;7.05;;;;;;;;;;5092356;28;20024;-76
2023/10/09 15:28:46;;;;;;;29.25;14.05;;;;;;;;;;5091591;28;20402;-77
2023/10/09 15:31:14;;;;;;;16.45;9.77;;;;;;;;;;5092148;28;20024;-77
2023/10/09 15:33:41;;;;;;;17.92;11.07;;;;;;;;;;5092136;28;20024;-77
2023/10/09 15:36:18;;;;;;;12.18;10.10;;;;;;;;;;5093236;28;20416;-77
2023/10/09 15:38:44;;;;;;;11.38;8.63;;;;;;;;;;5094075;28;20112;-78
2023/10/09 15:41:10;;;;;;;13.38;9.20;;;;;;;;;;5093445;28;20055;-77
2023/10/09 15:43:36;;;;;;;9.73;7.82;;;;;;;;;;5091522;28;20056;-75
2023/10/09 15:46:02;;;;;;;13.60;8.52;;;;;;;;;;5091447;28;20103;-73
2023/10/09 15:48:28;;;;;;;9.77;7.80;;;;;;;;;;5091451;28;20032;-75
2023/10/09 15:50:54;;;;;;;14.45;9.50;;;;;;;;;;5080110;28;20031;-77
2023/10/09 15:53:21;;;;;;;15.32;11.40;;;;;;;;;;5095131;28;20381;-75
2023/10/09 15:55:53;;;;;;;11.77;9.43;;;;;;;;;;5093248;28;20428;-75
2023/10/09 15:58:20;;;;;;;12.52;9.35;;;;;;;;;;5095207;28;20039;-74
2023/10/09 16:00:46;;;;;;;16.90;10.05;;;;;;;;;;5091349;28;20038;-75
2023/10/09 16:03:13;;;;;;;11.43;8.02;;;;;;;;;;5077539;28;20330;-74
2023/10/09 16:05:40;;;;;;;15.82;9.60;;;;;;;;;;5076922;28;20059;-73
2023/10/09 16:08:07;;;;;;;14.50;9.40;;;;;;;;;;5073777;28;20507;-74
2023/10/09 16:10:34;;;;;;;15.35;9.48;;;;;;;;;;5090939;28;20078;-73
2023/10/09 16:13:00;;;;;;;13.50;9.82;;;;;;;;;;5101991;28;20019;-80
2023/10/09 16:15:27;;;;;;;17.17;10.82;;;;;;;;;;5099761;28;20388;-74
2023/10/09 16:18:02;;;;;;;14.25;8.30;;;;;;;;;;5092557;28;20024;-73
2023/10/09 16:20:31;;;;;;;21.08;11.52;;;;;;;;;;5100295;28;20024;-75
2023/10/09 16:22:58;;;;;;;14.77;9.25;;;;;;;;;;5094758;28;20024;-74
2023/10/09 16:25:26;;;;;;;12.50;8.07;;;;;;;;;;5102654;28;20514;-75
2023/10/09 16:27:52;;;;;;;15.82;8.73;;;;;;;;;;5081582;28;20365;-75
2023/10/09 16:30:20;;;;;;;13.68;8.65;;;;;;;;;;5078559;28;20387;-74
2023/10/09 16:32:46;;;;;;;18.25;10.20;;;;;;;;;;5097422;28;20023;-74
2023/10/09 16:35:12;;;;;;;11.93;5.07;;;;;;;;;;5108373;28;20031;-76
2023/10/09 16:37:38;;;;;;;9.05;4.13;;;;;;;;;;5091316;28;20479;-75
2023/10/09 16:40:11;;;;;;;8.20;3.95;;;;;;;;;;5095689;28;20036;-76
2023/10/09 16:42:49;;;;;;;12.05;4.13;;;;;;;;;;5103119;28;20133;-78
2023/10/09 16:45:18;;;;;;;12.25;3.40;;;;;;;;;;5096553;28;20028;-75
2023/10/09 16:47:47;;;;;;;8.82;3.25;;;;;;;;;;5101650;28;20584;-77
2023/10/09 16:50:15;;;;;;;10.70;5.70;;;;;;;;;;5102451;28;20032;-74
2023/10/09 16:52:43;;;;;;;15.13;5.97;;;;;;;;;;5072422;28;20021;-75
2023/10/09 16:55:09;;;;;;;11.20;4.70;;;;;;;;;;5096282;28;20024;-77
2023/10/09 16:57:41;;;;;;;13.05;3.67;;;;;;;;;;5095020;28;20026;-75
2023/10/09 17:00:12;;;;;;;6.25;2.47;;;;;;;;;;5098961;28;20097;-75
2023/10/09 17:02:40;;;;;;;6.00;2.20;;;;;;;;;;5092961;28;20448;-75
2023/10/09 17:05:09;;;;;;;11.52;3.50;;;;;;;;;;5095520;28;20020;-74
2023/10/09 17:07:35;;;;;;;8.30;2.22;;;;;;;;;;5099641;28;20032;-74
2023/10/09 17:10:09;;;;;;;7.97;2.53;;;;;;;;;;5092118;28;20413;-75
2023/10/09 17:12:35;;;;;;;8.50;2.80;;;;;;;;;;5083646;28;20028;-76
2023/10/09 17:15:01;;;;;;;13.52;2.88;;;;;;;;;;5095589;28;20319;-75
2023/10/09 17:17:27;;;;;;;12.75;3.65;;;;;;;;;;5101138;28;20082;-74
2023/10/09 17:19:53;;;;;;;10.45;2.00;;;;;;;;;;5089485;28;20043;-75
2023/10/09 17:22:23;;;;;;;8.77;2.63;;;;;;;;;;5095867;28;20060;-75
2023/10/09 17:24:49;;;;;;;10.02;2.72;;;;;;;;;;5079310;28;20092;-76
2023/10/09 17:27:18;;;;;;;11.35;3.25;;;;;;;;;;5097542;28;20056;-74
2023/10/09 17:29:46;;;;;;;10.57;3.03;;;;;;;;;;5087658;28;20060;-75
2023/10/09 17:32:12;;;;;;;9.88;2.22;;;;;;;;;;5094530;28;20056;-77
2023/10/09 17:34:39;;;;;;;7.28;2.08;;;;;;;;;;5096262;28;20043;-76
2023/10/09 17:37:05;;;;;;;7.93;2.25;;;;;;;;;;5071744;28;20400;-74
2023/10/09 17:39:32;;;;;;;7.13;3.15;;;;;;;;;;5100051;28;20032;-74